sensor_id;sensor_type;location;lat;lon;timestamp;temperature;humidity
20526;DHT22;10421;49.142;9.232;2023-04-03T00:01:25;8.40;81.20
20526;DHT22;10421;49.142;9.232;2023-04-03T00:03:52;8.40;81.10
20526;DHT22;10421;49.142;9.232;2023-04-03T00:06:20;8.40;82.00
20526;DHT22;10421;49.142;9.232;2023-04-03T00:08:47;8.40;81.40
20526;DHT22;10421;49.142;9.232;2023-04-03T00:11:14;8.40;81.50
20526;DHT22;10421;49.142;9.232;2023-04-03T00:13:41;8.40;81.60
20526;DHT22;10421;49.142;9.232;2023-04-03T00:16:09;8.40;81.60
20526;DHT22;10421;49.142;9.232;2023-04-03T00:18:37;8.40;81.60
20526;DHT22;10421;49.142;9.232;2023-04-03T00:21:05;8.40;81.50
20526;DHT22;10421;49.142;9.232;2023-04-03T00:23:33;8.40;81.50
20526;DHT22;10421;49.142;9.232;2023-04-03T00:26:00;8.40;81.50
20526;DHT22;10421;49.142;9.232;2023-04-03T00:28:27;8.50;81.60
20526;DHT22;10421;49.142;9.232;2023-04-03T00:30:54;8.40;81.50
20526;DHT22;10421;49.142;9.232;2023-04-03T00:33:20;8.40;81.50
20526;DHT22;10421;49.142;9.232;2023-04-03T00:35:47;8.40;81.40
20526;DHT22;10421;49.142;9.232;2023-04-03T00:38:14;8.40;81.40
20526;DHT22;10421;49.142;9.232;2023-04-03T00:40:44;8.40;81.30
20526;DHT22;10421;49.142;9.232;2023-04-03T00:43:14;8.40;81.20
20526;DHT22;10421;49.142;9.232;2023-04-03T00:45:43;8.40;81.10
20526;DHT22;10421;49.142;9.232;2023-04-03T00:48:13;8.40;81.00
20526;DHT22;10421;49.142;9.232;2023-04-03T00:50:41;8.40;80.80
20526;DHT22;10421;49.142;9.232;2023-04-03T00:53:11;8.40;80.70
20526;DHT22;10421;49.142;9.232;2023-04-03T00:55:39;8.40;80.30
20526;DHT22;10421;49.142;9.232;2023-04-03T00:58:08;8.30;79.80
20526;DHT22;10421;49.142;9.232;2023-04-03T01:00:37;8.30;79.40
20526;DHT22;10421;49.142;9.232;2023-04-03T01:03:04;8.30;79.30
20526;DHT22;10421;49.142;9.232;2023-04-03T01:05:31;8.30;79.00
20526;DHT22;10421;49.142;9.232;2023-04-03T01:07:58;8.30;79.00
20526;DHT22;10421;49.142;9.232;2023-04-03T01:10:25;8.30;78.90
20526;DHT22;10421;49.142;9.232;2023-04-03T01:12:52;8.30;79.40
20526;DHT22;10421;49.142;9.232;2023-04-03T01:15:22;8.30;78.80
20526;DHT22;10421;49.142;9.232;2023-04-03T01:17:50;8.20;77.50
20526;DHT22;10421;49.142;9.232;2023-04-03T01:23:36;8.10;76.90
20526;DHT22;10421;49.142;9.232;2023-04-03T01:26:05;8.10;77.10
20526;DHT22;10421;49.142;9.232;2023-04-03T01:28:34;8.20;77.20
20526;DHT22;10421;49.142;9.232;2023-04-03T01:31:10;8.20;78.00
20526;DHT22;10421;49.142;9.232;2023-04-03T01:33:40;8.20;77.40
20526;DHT22;10421;49.142;9.232;2023-04-03T01:36:07;8.30;77.50
20526;DHT22;10421;49.142;9.232;2023-04-03T01:38:34;8.40;77.50
20526;DHT22;10421;49.142;9.232;2023-04-03T01:41:01;8.40;77.20
20526;DHT22;10421;49.142;9.232;2023-04-03T01:43:27;8.40;77.10
20526;DHT22;10421;49.142;9.232;2023-04-03T01:45:54;8.40;77.30
20526;DHT22;10421;49.142;9.232;2023-04-03T01:48:21;8.50;77.20
20526;DHT22;10421;49.142;9.232;2023-04-03T01:50:49;8.40;77.30
20526;DHT22;10421;49.142;9.232;2023-04-03T01:53:16;8.40;77.50
20526;DHT22;10421;49.142;9.232;2023-04-03T01:55:43;8.30;78.10
20526;DHT22;10421;49.142;9.232;2023-04-03T01:58:10;8.20;78.70
20526;DHT22;10421;49.142;9.232;2023-04-03T02:00:36;8.30;79.10
20526;DHT22;10421;49.142;9.232;2023-04-03T02:03:03;8.30;79.10
20526;DHT22;10421;49.142;9.232;2023-04-03T02:05:30;8.40;79.20
20526;DHT22;10421;49.142;9.232;2023-04-03T02:07:58;8.40;79.20
20526;DHT22;10421;49.142;9.232;2023-04-03T02:10:25;8.30;79.30
20526;DHT22;10421;49.142;9.232;2023-04-03T02:12:52;8.40;79.50
20526;DHT22;10421;49.142;9.232;2023-04-03T02:15:18;8.30;79.40
20526;DHT22;10421;49.142;9.232;2023-04-03T02:17:45;8.30;79.60
20526;DHT22;10421;49.142;9.232;2023-04-03T02:20:12;8.30;80.30
20526;DHT22;10421;49.142;9.232;2023-04-03T02:22:38;8.30;79.80
20526;DHT22;10421;49.142;9.232;2023-04-03T02:25:07;8.30;80.00
20526;DHT22;10421;49.142;9.232;2023-04-03T02:27:35;8.20;80.20
20526;DHT22;10421;49.142;9.232;2023-04-03T02:30:02;8.20;80.20
20526;DHT22;10421;49.142;9.232;2023-04-03T02:32:29;8.30;80.30
20526;DHT22;10421;49.142;9.232;2023-04-03T02:34:55;8.30;80.30
20526;DHT22;10421;49.142;9.232;2023-04-03T02:37:22;8.40;80.40
20526;DHT22;10421;49.142;9.232;2023-04-03T02:39:49;8.40;80.30
20526;DHT22;10421;49.142;9.232;2023-04-03T02:42:18;8.40;80.40
20526;DHT22;10421;49.142;9.232;2023-04-03T02:44:44;8.40;80.30
20526;DHT22;10421;49.142;9.232;2023-04-03T02:47:11;8.40;80.20
20526;DHT22;10421;49.142;9.232;2023-04-03T02:49:38;8.40;80.10
20526;DHT22;10421;49.142;9.232;2023-04-03T02:52:05;8.40;80.00
20526;DHT22;10421;49.142;9.232;2023-04-03T02:54:32;8.50;80.00
20526;DHT22;10421;49.142;9.232;2023-04-03T02:56:58;8.40;79.90
20526;DHT22;10421;49.142;9.232;2023-04-03T02:59:26;8.50;79.90
20526;DHT22;10421;49.142;9.232;2023-04-03T03:01:53;8.50;79.70
20526;DHT22;10421;49.142;9.232;2023-04-03T03:04:21;8.50;79.60
20526;DHT22;10421;49.142;9.232;2023-04-03T03:06:47;8.50;79.60
20526;DHT22;10421;49.142;9.232;2023-04-03T03:09:14;8.50;79.60
20526;DHT22;10421;49.142;9.232;2023-04-03T03:11:41;8.50;79.60
20526;DHT22;10421;49.142;9.232;2023-04-03T03:14:08;8.60;79.70
20526;DHT22;10421;49.142;9.232;2023-04-03T03:16:36;8.60;79.70
20526;DHT22;10421;49.142;9.232;2023-04-03T03:19:03;8.60;79.50
20526;DHT22;10421;49.142;9.232;2023-04-03T03:21:30;8.60;79.30
20526;DHT22;10421;49.142;9.232;2023-04-03T03:23:57;8.60;79.20
20526;DHT22;10421;49.142;9.232;2023-04-03T03:26:23;8.50;79.10
20526;DHT22;10421;49.142;9.232;2023-04-03T03:28:50;8.50;79.10
20526;DHT22;10421;49.142;9.232;2023-04-03T03:31:17;8.50;79.20
20526;DHT22;10421;49.142;9.232;2023-04-03T03:33:45;8.50;79.30
20526;DHT22;10421;49.142;9.232;2023-04-03T03:36:12;8.50;79.30
20526;DHT22;10421;49.142;9.232;2023-04-03T03:38:39;8.50;79.20
20526;DHT22;10421;49.142;9.232;2023-04-03T03:41:05;8.50;79.20
20526;DHT22;10421;49.142;9.232;2023-04-03T03:43:32;8.50;79.30
20526;DHT22;10421;49.142;9.232;2023-04-03T03:45:59;8.40;79.20
20526;DHT22;10421;49.142;9.232;2023-04-03T03:48:25;8.40;79.40
20526;DHT22;10421;49.142;9.232;2023-04-03T03:50:53;8.40;79.50
20526;DHT22;10421;49.142;9.232;2023-04-03T03:53:20;8.30;79.20
20526;DHT22;10421;49.142;9.232;2023-04-03T03:55:47;8.30;79.20
20526;DHT22;10421;49.142;9.232;2023-04-03T03:58:13;8.20;79.10
20526;DHT22;10421;49.142;9.232;2023-04-03T04:00:40;8.20;79.10
20526;DHT22;10421;49.142;9.232;2023-04-03T04:03:07;8.10;79.10
20526;DHT22;10421;49.142;9.232;2023-04-03T04:05:34;8.00;79.30
20526;DHT22;10421;49.142;9.232;2023-04-03T04:08:02;8.00;79.40
20526;DHT22;10421;49.142;9.232;2023-04-03T04:10:28;8.00;79.60
20526;DHT22;10421;49.142;9.232;2023-04-03T04:12:55;8.00;79.60
20526;DHT22;10421;49.142;9.232;2023-04-03T04:15:22;7.90;79.50
20526;DHT22;10421;49.142;9.232;2023-04-03T04:17:50;7.90;79.30
20526;DHT22;10421;49.142;9.232;2023-04-03T04:20:17;7.80;79.20
20526;DHT22;10421;49.142;9.232;2023-04-03T04:22:44;7.80;79.20
20526;DHT22;10421;49.142;9.232;2023-04-03T04:25:12;7.70;79.10
20526;DHT22;10421;49.142;9.232;2023-04-03T04:27:39;7.70;79.10
20526;DHT22;10421;49.142;9.232;2023-04-03T04:30:07;7.60;79.00
20526;DHT22;10421;49.142;9.232;2023-04-03T04:32:33;7.60;79.30
20526;DHT22;10421;49.142;9.232;2023-04-03T04:35:01;7.50;79.20
20526;DHT22;10421;49.142;9.232;2023-04-03T04:37:27;7.40;79.30
20526;DHT22;10421;49.142;9.232;2023-04-03T04:39:54;7.40;79.50
20526;DHT22;10421;49.142;9.232;2023-04-03T04:42:22;7.40;79.60
20526;DHT22;10421;49.142;9.232;2023-04-03T04:44:49;7.40;79.80
20526;DHT22;10421;49.142;9.232;2023-04-03T04:47:17;7.40;79.80
20526;DHT22;10421;49.142;9.232;2023-04-03T04:49:44;7.40;80.00
20526;DHT22;10421;49.142;9.232;2023-04-03T04:52:12;7.50;80.10
20526;DHT22;10421;49.142;9.232;2023-04-03T04:54:39;7.50;80.10
20526;DHT22;10421;49.142;9.232;2023-04-03T04:57:06;7.50;80.80
20526;DHT22;10421;49.142;9.232;2023-04-03T04:59:34;7.50;80.20
20526;DHT22;10421;49.142;9.232;2023-04-03T05:02:00;7.60;80.20
20526;DHT22;10421;49.142;9.232;2023-04-03T05:04:27;7.50;80.10
20526;DHT22;10421;49.142;9.232;2023-04-03T05:06:54;7.50;80.10
20526;DHT22;10421;49.142;9.232;2023-04-03T05:09:21;7.50;80.20
20526;DHT22;10421;49.142;9.232;2023-04-03T05:11:48;7.40;80.30
20526;DHT22;10421;49.142;9.232;2023-04-03T05:14:14;7.40;80.40
20526;DHT22;10421;49.142;9.232;2023-04-03T05:16:43;7.40;80.50
20526;DHT22;10421;49.142;9.232;2023-04-03T05:19:09;7.30;80.40
20526;DHT22;10421;49.142;9.232;2023-04-03T05:21:36;7.30;80.60
20526;DHT22;10421;49.142;9.232;2023-04-03T05:24:03;7.30;80.80
20526;DHT22;10421;49.142;9.232;2023-04-03T05:26:30;7.40;80.90
20526;DHT22;10421;49.142;9.232;2023-04-03T05:28:57;7.40;80.90
20526;DHT22;10421;49.142;9.232;2023-04-03T05:31:24;7.40;80.90
20526;DHT22;10421;49.142;9.232;2023-04-03T05:33:52;7.50;81.10
20526;DHT22;10421;49.142;9.232;2023-04-03T05:36:19;7.50;81.10
20526;DHT22;10421;49.142;9.232;2023-04-03T05:38:46;7.50;81.10
20526;DHT22;10421;49.142;9.232;2023-04-03T05:41:13;7.60;81.10
20526;DHT22;10421;49.142;9.232;2023-04-03T05:43:40;7.60;81.10
20526;DHT22;10421;49.142;9.232;2023-04-03T05:46:10;7.60;80.90
20526;DHT22;10421;49.142;9.232;2023-04-03T05:48:37;7.60;80.90
20526;DHT22;10421;49.142;9.232;2023-04-03T05:51:06;7.60;81.10
20526;DHT22;10421;49.142;9.232;2023-04-03T05:53:35;7.60;81.20
20526;DHT22;10421;49.142;9.232;2023-04-03T05:56:03;7.70;82.00
20526;DHT22;10421;49.142;9.232;2023-04-03T05:58:30;7.70;81.30
20526;DHT22;10421;49.142;9.232;2023-04-03T06:00:57;7.70;81.20
20526;DHT22;10421;49.142;9.232;2023-04-03T06:03:24;7.70;81.10
20526;DHT22;10421;49.142;9.232;2023-04-03T06:05:51;7.80;81.10
20526;DHT22;10421;49.142;9.232;2023-04-03T06:08:19;7.70;80.90
20526;DHT22;10421;49.142;9.232;2023-04-03T06:10:46;7.70;80.90
20526;DHT22;10421;49.142;9.232;2023-04-03T06:13:13;7.70;81.10
20526;DHT22;10421;49.142;9.232;2023-04-03T06:15:40;7.80;81.30
20526;DHT22;10421;49.142;9.232;2023-04-03T06:18:07;7.80;81.30
20526;DHT22;10421;49.142;9.232;2023-04-03T06:20:34;7.80;81.30
20526;DHT22;10421;49.142;9.232;2023-04-03T06:23:00;7.80;81.30
20526;DHT22;10421;49.142;9.232;2023-04-03T06:25:29;7.80;81.40
20526;DHT22;10421;49.142;9.232;2023-04-03T06:27:57;7.80;81.60
20526;DHT22;10421;49.142;9.232;2023-04-03T06:30:24;7.80;81.90
20526;DHT22;10421;49.142;9.232;2023-04-03T06:32:50;7.80;82.10
20526;DHT22;10421;49.142;9.232;2023-04-03T06:35:17;7.80;82.10
20526;DHT22;10421;49.142;9.232;2023-04-03T06:37:44;7.90;82.50
20526;DHT22;10421;49.142;9.232;2023-04-03T06:40:16;8.00;82.70
20526;DHT22;10421;49.142;9.232;2023-04-03T06:42:45;8.10;82.60
20526;DHT22;10421;49.142;9.232;2023-04-03T06:45:12;8.10;82.50
20526;DHT22;10421;49.142;9.232;2023-04-03T06:47:39;8.20;82.50
20526;DHT22;10421;49.142;9.232;2023-04-03T06:50:06;8.20;82.50
20526;DHT22;10421;49.142;9.232;2023-04-03T06:52:34;8.20;82.60
20526;DHT22;10421;49.142;9.232;2023-04-03T06:55:01;8.20;82.80
20526;DHT22;10421;49.142;9.232;2023-04-03T06:57:27;8.30;82.90
20526;DHT22;10421;49.142;9.232;2023-04-03T06:59:56;8.30;82.90
20526;DHT22;10421;49.142;9.232;2023-04-03T07:02:23;8.30;83.10
20526;DHT22;10421;49.142;9.232;2023-04-03T07:04:50;8.30;83.40
20526;DHT22;10421;49.142;9.232;2023-04-03T07:07:16;8.40;83.50
20526;DHT22;10421;49.142;9.232;2023-04-03T07:09:43;8.50;84.30
20526;DHT22;10421;49.142;9.232;2023-04-03T07:12:12;8.70;85.60
20526;DHT22;10421;49.142;9.232;2023-04-03T07:14:39;8.70;84.60
20526;DHT22;10421;49.142;9.232;2023-04-03T07:17:07;8.70;84.00
20526;DHT22;10421;49.142;9.232;2023-04-03T07:19:33;8.70;83.90
20526;DHT22;10421;49.142;9.232;2023-04-03T07:22:00;8.80;84.30
20526;DHT22;10421;49.142;9.232;2023-04-03T07:24:27;8.90;86.10
20526;DHT22;10421;49.142;9.232;2023-04-03T07:26:54;9.00;86.30
20526;DHT22;10421;49.142;9.232;2023-04-03T07:29:20;9.00;84.20
20526;DHT22;10421;49.142;9.232;2023-04-03T07:31:47;9.00;83.90
20526;DHT22;10421;49.142;9.232;2023-04-03T07:34:16;8.80;84.10
20526;DHT22;10421;49.142;9.232;2023-04-03T07:36:42;8.80;84.20
20526;DHT22;10421;49.142;9.232;2023-04-03T07:39:09;8.70;84.60
20526;DHT22;10421;49.142;9.232;2023-04-03T07:41:36;8.70;84.90
20526;DHT22;10421;49.142;9.232;2023-04-03T07:44:03;8.60;85.00
20526;DHT22;10421;49.142;9.232;2023-04-03T07:46:31;8.50;85.00
20526;DHT22;10421;49.142;9.232;2023-04-03T07:48:57;8.40;85.20
20526;DHT22;10421;49.142;9.232;2023-04-03T07:51:25;8.40;85.20
20526;DHT22;10421;49.142;9.232;2023-04-03T07:53:53;8.40;85.30
20526;DHT22;10421;49.142;9.232;2023-04-03T07:56:20;8.50;85.60
20526;DHT22;10421;49.142;9.232;2023-04-03T07:58:48;8.50;85.40
20526;DHT22;10421;49.142;9.232;2023-04-03T08:01:15;8.60;85.70
20526;DHT22;10421;49.142;9.232;2023-04-03T08:03:41;8.70;85.50
20526;DHT22;10421;49.142;9.232;2023-04-03T08:06:09;8.70;85.00
20526;DHT22;10421;49.142;9.232;2023-04-03T08:08:37;8.80;85.10
20526;DHT22;10421;49.142;9.232;2023-04-03T08:11:03;9.00;84.90
20526;DHT22;10421;49.142;9.232;2023-04-03T08:13:31;9.10;84.50
20526;DHT22;10421;49.142;9.232;2023-04-03T08:16:06;9.10;83.80
20526;DHT22;10421;49.142;9.232;2023-04-03T08:18:32;9.20;83.70
20526;DHT22;10421;49.142;9.232;2023-04-03T08:20:59;9.30;83.30
20526;DHT22;10421;49.142;9.232;2023-04-03T08:23:26;9.30;82.60
20526;DHT22;10421;49.142;9.232;2023-04-03T08:25:54;9.40;82.20
20526;DHT22;10421;49.142;9.232;2023-04-03T08:28:21;9.50;82.10
20526;DHT22;10421;49.142;9.232;2023-04-03T08:30:48;9.60;81.70
20526;DHT22;10421;49.142;9.232;2023-04-03T08:33:14;9.60;80.90
20526;DHT22;10421;49.142;9.232;2023-04-03T08:35:42;9.70;81.20
20526;DHT22;10421;49.142;9.232;2023-04-03T08:38:09;9.70;80.50
20526;DHT22;10421;49.142;9.232;2023-04-03T08:40:36;9.70;79.40
20526;DHT22;10421;49.142;9.232;2023-04-03T08:43:19;9.70;79.60
20526;DHT22;10421;49.142;9.232;2023-04-03T08:45:50;9.70;79.70
20526;DHT22;10421;49.142;9.232;2023-04-03T08:48:20;9.80;80.00
20526;DHT22;10421;49.142;9.232;2023-04-03T08:50:51;9.80;79.40
20526;DHT22;10421;49.142;9.232;2023-04-03T08:53:21;9.80;78.90
20526;DHT22;10421;49.142;9.232;2023-04-03T08:55:50;9.80;78.60
20526;DHT22;10421;49.142;9.232;2023-04-03T08:58:21;9.80;78.60
20526;DHT22;10421;49.142;9.232;2023-04-03T09:00:51;9.80;78.60
20526;DHT22;10421;49.142;9.232;2023-04-03T09:03:20;9.80;78.60
20526;DHT22;10421;49.142;9.232;2023-04-03T09:05:49;9.80;78.10
20526;DHT22;10421;49.142;9.232;2023-04-03T09:08:26;9.80;77.90
20526;DHT22;10421;49.142;9.232;2023-04-03T09:10:59;9.80;78.00
20526;DHT22;10421;49.142;9.232;2023-04-03T09:13:37;9.80;77.70
20526;DHT22;10421;49.142;9.232;2023-04-03T09:16:16;9.90;77.20
20526;DHT22;10421;49.142;9.232;2023-04-03T09:18:52;9.80;76.40
20526;DHT22;10421;49.142;9.232;2023-04-03T09:21:23;9.80;76.10
20526;DHT22;10421;49.142;9.232;2023-04-03T09:23:53;9.90;76.30
20526;DHT22;10421;49.142;9.232;2023-04-03T09:26:24;9.90;76.10
20526;DHT22;10421;49.142;9.232;2023-04-03T09:28:55;10.00;75.00
20526;DHT22;10421;49.142;9.232;2023-04-03T09:31:24;10.10;75.50
20526;DHT22;10421;49.142;9.232;2023-04-03T09:33:54;10.20;75.10
20526;DHT22;10421;49.142;9.232;2023-04-03T09:36:41;10.20;74.00
20526;DHT22;10421;49.142;9.232;2023-04-03T09:39:11;10.30;74.10
20526;DHT22;10421;49.142;9.232;2023-04-03T09:41:38;10.30;74.20
20526;DHT22;10421;49.142;9.232;2023-04-03T09:44:21;10.40;73.60
20526;DHT22;10421;49.142;9.232;2023-04-03T09:46:48;10.30;73.40
20526;DHT22;10421;49.142;9.232;2023-04-03T09:49:15;10.40;75.70
20526;DHT22;10421;49.142;9.232;2023-04-03T09:51:43;10.50;75.00
20526;DHT22;10421;49.142;9.232;2023-04-03T09:54:32;10.50;73.40
20526;DHT22;10421;49.142;9.232;2023-04-03T09:57:06;10.50;72.50
20526;DHT22;10421;49.142;9.232;2023-04-03T09:59:34;10.40;72.60
20526;DHT22;10421;49.142;9.232;2023-04-03T10:02:03;10.50;73.20
20526;DHT22;10421;49.142;9.232;2023-04-03T10:04:42;10.50;72.50
20526;DHT22;10421;49.142;9.232;2023-04-03T10:07:28;10.50;72.20
20526;DHT22;10421;49.142;9.232;2023-04-03T10:09:57;10.40;72.10
20526;DHT22;10421;49.142;9.232;2023-04-03T10:12:24;10.40;72.10
20526;DHT22;10421;49.142;9.232;2023-04-03T10:14:56;10.30;72.70
20526;DHT22;10421;49.142;9.232;2023-04-03T10:17:36;10.40;72.70
20526;DHT22;10421;49.142;9.232;2023-04-03T10:20:10;10.40;72.60
20526;DHT22;10421;49.142;9.232;2023-04-03T10:22:51;10.50;72.70
20526;DHT22;10421;49.142;9.232;2023-04-03T10:25:27;10.60;72.50
20526;DHT22;10421;49.142;9.232;2023-04-03T10:27:58;10.60;72.90
20526;DHT22;10421;49.142;9.232;2023-04-03T10:30:36;10.60;70.40
20526;DHT22;10421;49.142;9.232;2023-04-03T10:33:24;10.50;70.50
20526;DHT22;10421;49.142;9.232;2023-04-03T10:36:02;10.50;70.60
20526;DHT22;10421;49.142;9.232;2023-04-03T10:38:43;10.50;70.50
20526;DHT22;10421;49.142;9.232;2023-04-03T10:41:15;10.40;70.60
20526;DHT22;10421;49.142;9.232;2023-04-03T10:43:46;10.50;70.90
20526;DHT22;10421;49.142;9.232;2023-04-03T10:46:23;10.50;70.60
20526;DHT22;10421;49.142;9.232;2023-04-03T10:49:05;10.50;70.40
20526;DHT22;10421;49.142;9.232;2023-04-03T10:51:41;10.60;69.50
20526;DHT22;10421;49.142;9.232;2023-04-03T10:54:11;10.60;67.80
20526;DHT22;10421;49.142;9.232;2023-04-03T10:56:41;10.60;67.90
20526;DHT22;10421;49.142;9.232;2023-04-03T10:59:18;10.60;67.80
20526;DHT22;10421;49.142;9.232;2023-04-03T11:01:50;10.50;67.20
20526;DHT22;10421;49.142;9.232;2023-04-03T11:04:19;10.50;67.50
20526;DHT22;10421;49.142;9.232;2023-04-03T11:06:51;10.50;68.20
20526;DHT22;10421;49.142;9.232;2023-04-03T11:09:24;10.50;68.10
20526;DHT22;10421;49.142;9.232;2023-04-03T11:11:56;10.50;67.20
20526;DHT22;10421;49.142;9.232;2023-04-03T11:14:26;10.40;67.20
20526;DHT22;10421;49.142;9.232;2023-04-03T11:17:04;10.50;67.20
20526;DHT22;10421;49.142;9.232;2023-04-03T11:19:35;10.50;66.30
20526;DHT22;10421;49.142;9.232;2023-04-03T11:22:09;10.50;66.00
20526;DHT22;10421;49.142;9.232;2023-04-03T11:24:40;10.60;65.70
20526;DHT22;10421;49.142;9.232;2023-04-03T11:27:15;10.60;64.00
20526;DHT22;10421;49.142;9.232;2023-04-03T11:29:44;10.50;62.50
20526;DHT22;10421;49.142;9.232;2023-04-03T11:32:34;10.50;62.20
20526;DHT22;10421;49.142;9.232;2023-04-03T11:35:05;10.50;60.90
20526;DHT22;10421;49.142;9.232;2023-04-03T11:37:35;10.60;62.00
20526;DHT22;10421;49.142;9.232;2023-04-03T11:40:06;10.80;63.00
20526;DHT22;10421;49.142;9.232;2023-04-03T11:42:36;11.00;63.40
20526;DHT22;10421;49.142;9.232;2023-04-03T11:45:38;10.90;64.20
20526;DHT22;10421;49.142;9.232;2023-04-03T11:48:45;10.90;64.40
20526;DHT22;10421;49.142;9.232;2023-04-03T11:51:41;10.80;63.00
20526;DHT22;10421;49.142;9.232;2023-04-03T11:54:34;10.70;62.50
20526;DHT22;10421;49.142;9.232;2023-04-03T12:03:32;10.90;61.30
20526;DHT22;10421;49.142;9.232;2023-04-03T12:09:00;10.90;60.30
20526;DHT22;10421;49.142;9.232;2023-04-03T12:11:30;11.00;60.30
20526;DHT22;10421;49.142;9.232;2023-04-03T12:14:04;11.10;59.80
20526;DHT22;10421;49.142;9.232;2023-04-03T12:16:33;11.20;59.60
20526;DHT22;10421;49.142;9.232;2023-04-03T12:19:30;11.20;59.30
20526;DHT22;10421;49.142;9.232;2023-04-03T12:22:15;11.20;59.60
20526;DHT22;10421;49.142;9.232;2023-04-03T12:24:45;11.30;60.30
20526;DHT22;10421;49.142;9.232;2023-04-03T12:27:33;11.20;60.00
20526;DHT22;10421;49.142;9.232;2023-04-03T12:30:12;11.30;60.90
20526;DHT22;10421;49.142;9.232;2023-04-03T12:33:02;11.40;60.80
20526;DHT22;10421;49.142;9.232;2023-04-03T12:35:35;11.60;59.70
20526;DHT22;10421;49.142;9.232;2023-04-03T12:41:18;11.70;59.20
20526;DHT22;10421;49.142;9.232;2023-04-03T12:43:55;11.70;58.40
20526;DHT22;10421;49.142;9.232;2023-04-03T12:46:35;11.70;57.80
20526;DHT22;10421;49.142;9.232;2023-04-03T12:49:16;11.80;57.40
20526;DHT22;10421;49.142;9.232;2023-04-03T12:51:47;11.80;56.50
20526;DHT22;10421;49.142;9.232;2023-04-03T12:54:19;11.80;56.30
20526;DHT22;10421;49.142;9.232;2023-04-03T12:56:48;11.70;56.60
20526;DHT22;10421;49.142;9.232;2023-04-03T12:59:18;11.70;56.20
20526;DHT22;10421;49.142;9.232;2023-04-03T13:01:53;11.70;56.50
20526;DHT22;10421;49.142;9.232;2023-04-03T13:04:20;11.70;57.30
20526;DHT22;10421;49.142;9.232;2023-04-03T13:06:48;11.60;56.10
20526;DHT22;10421;49.142;9.232;2023-04-03T13:09:20;11.50;55.80
20526;DHT22;10421;49.142;9.232;2023-04-03T13:11:50;11.50;56.20
20526;DHT22;10421;49.142;9.232;2023-04-03T13:14:21;11.50;55.90
20526;DHT22;10421;49.142;9.232;2023-04-03T13:16:55;11.50;55.10
20526;DHT22;10421;49.142;9.232;2023-04-03T13:19:24;11.50;53.80
20526;DHT22;10421;49.142;9.232;2023-04-03T13:21:56;11.50;53.00
20526;DHT22;10421;49.142;9.232;2023-04-03T13:24:26;11.40;53.70
20526;DHT22;10421;49.142;9.232;2023-04-03T13:26:56;11.40;54.30
20526;DHT22;10421;49.142;9.232;2023-04-03T13:29:27;11.40;54.40
20526;DHT22;10421;49.142;9.232;2023-04-03T13:31:56;11.30;54.40
20526;DHT22;10421;49.142;9.232;2023-04-03T13:34:26;11.30;54.90
20526;DHT22;10421;49.142;9.232;2023-04-03T13:36:58;11.30;55.30
20526;DHT22;10421;49.142;9.232;2023-04-03T13:39:28;11.30;54.80
20526;DHT22;10421;49.142;9.232;2023-04-03T13:41:58;11.40;54.90
20526;DHT22;10421;49.142;9.232;2023-04-03T13:44:32;11.60;54.10
20526;DHT22;10421;49.142;9.232;2023-04-03T13:47:00;11.80;52.70
20526;DHT22;10421;49.142;9.232;2023-04-03T13:49:32;11.80;51.40
20526;DHT22;10421;49.142;9.232;2023-04-03T13:52:01;11.80;51.40
20526;DHT22;10421;49.142;9.232;2023-04-03T13:54:31;11.90;51.90
20526;DHT22;10421;49.142;9.232;2023-04-03T13:57:01;11.80;50.60
20526;DHT22;10421;49.142;9.232;2023-04-03T13:59:30;11.90;50.60
20526;DHT22;10421;49.142;9.232;2023-04-03T14:02:15;12.10;50.90
20526;DHT22;10421;49.142;9.232;2023-04-03T14:04:49;12.30;50.40
20526;DHT22;10421;49.142;9.232;2023-04-03T14:07:19;12.50;50.60
20526;DHT22;10421;49.142;9.232;2023-04-03T14:09:47;12.60;50.20
20526;DHT22;10421;49.142;9.232;2023-04-03T14:12:17;12.60;49.30
20526;DHT22;10421;49.142;9.232;2023-04-03T14:14:45;12.40;49.00
20526;DHT22;10421;49.142;9.232;2023-04-03T14:17:15;12.30;48.90
20526;DHT22;10421;49.142;9.232;2023-04-03T14:19:42;12.30;49.30
20526;DHT22;10421;49.142;9.232;2023-04-03T14:22:15;12.40;49.40
20526;DHT22;10421;49.142;9.232;2023-04-03T14:24:42;12.60;48.80
20526;DHT22;10421;49.142;9.232;2023-04-03T14:27:18;12.80;48.80
20526;DHT22;10421;49.142;9.232;2023-04-03T14:29:45;13.00;47.80
20526;DHT22;10421;49.142;9.232;2023-04-03T14:32:13;13.10;47.80
20526;DHT22;10421;49.142;9.232;2023-04-03T14:34:40;13.30;47.50
20526;DHT22;10421;49.142;9.232;2023-04-03T14:37:10;13.40;47.50
20526;DHT22;10421;49.142;9.232;2023-04-03T14:39:37;13.40;46.10
20526;DHT22;10421;49.142;9.232;2023-04-03T14:42:04;13.40;45.90
20526;DHT22;10421;49.142;9.232;2023-04-03T14:44:33;13.50;46.00
20526;DHT22;10421;49.142;9.232;2023-04-03T14:47:00;13.50;46.20
20526;DHT22;10421;49.142;9.232;2023-04-03T14:49:29;13.60;45.50
20526;DHT22;10421;49.142;9.232;2023-04-03T14:51:57;13.60;45.20
20526;DHT22;10421;49.142;9.232;2023-04-03T14:54:24;13.50;44.80
20526;DHT22;10421;49.142;9.232;2023-04-03T14:56:53;13.50;45.20
20526;DHT22;10421;49.142;9.232;2023-04-03T14:59:21;13.50;44.90
20526;DHT22;10421;49.142;9.232;2023-04-03T15:01:49;13.50;44.80
20526;DHT22;10421;49.142;9.232;2023-04-03T15:04:17;13.40;44.70
20526;DHT22;10421;49.142;9.232;2023-04-03T15:06:46;13.50;45.00
20526;DHT22;10421;49.142;9.232;2023-04-03T15:09:19;13.40;45.10
20526;DHT22;10421;49.142;9.232;2023-04-03T15:11:47;13.50;45.80
20526;DHT22;10421;49.142;9.232;2023-04-03T15:14:14;13.60;45.60
20526;DHT22;10421;49.142;9.232;2023-04-03T15:16:43;13.80;45.30
20526;DHT22;10421;49.142;9.232;2023-04-03T15:19:12;14.00;45.10
20526;DHT22;10421;49.142;9.232;2023-04-03T15:21:39;14.00;44.70
20526;DHT22;10421;49.142;9.232;2023-04-03T15:24:06;13.90;44.70
20526;DHT22;10421;49.142;9.232;2023-04-03T15:26:33;13.80;44.60
20526;DHT22;10421;49.142;9.232;2023-04-03T15:29:00;13.60;44.50
20526;DHT22;10421;49.142;9.232;2023-04-03T15:31:27;13.50;45.10
20526;DHT22;10421;49.142;9.232;2023-04-03T15:33:54;13.50;45.50
20526;DHT22;10421;49.142;9.232;2023-04-03T15:36:22;13.50;45.30
20526;DHT22;10421;49.142;9.232;2023-04-03T15:38:49;13.50;44.40
20526;DHT22;10421;49.142;9.232;2023-04-03T15:41:16;13.40;44.00
20526;DHT22;10421;49.142;9.232;2023-04-03T15:43:42;13.20;44.10
20526;DHT22;10421;49.142;9.232;2023-04-03T15:46:11;13.10;44.20
20526;DHT22;10421;49.142;9.232;2023-04-03T15:48:41;12.90;44.50
20526;DHT22;10421;49.142;9.232;2023-04-03T15:51:08;12.70;45.00
20526;DHT22;10421;49.142;9.232;2023-04-03T15:53:36;12.70;45.50
20526;DHT22;10421;49.142;9.232;2023-04-03T15:56:05;12.70;45.80
20526;DHT22;10421;49.142;9.232;2023-04-03T15:58:33;12.80;45.70
20526;DHT22;10421;49.142;9.232;2023-04-03T16:01:02;12.80;44.70
20526;DHT22;10421;49.142;9.232;2023-04-03T16:03:30;12.80;44.50
20526;DHT22;10421;49.142;9.232;2023-04-03T16:05:58;12.80;44.70
20526;DHT22;10421;49.142;9.232;2023-04-03T16:08:27;12.70;44.70
20526;DHT22;10421;49.142;9.232;2023-04-03T16:10:59;12.70;44.80